Time;durP1;ratioP1;P1;durP2;ratioP2;P2;SDS_P1;SDS_P2;PMS_P1;PMS_P2;Temp;Humidity;BMP_temperature;BMP_pressure;BME280_temperature;BME280_humidity;BME280_pressure;Samples;Min_cycle;Max_cycle;Signal;HPM_P1;HPM_P2
2023/07/10 00:01:04;;;;;;;9.40;3.30;;;23.00;69.70;;;;;;5018179;28;20030;-75
2023/07/10 00:03:30;;;;;;;8.73;4.22;;;23.10;68.80;;;;;;5025638;28;20419;-75
2023/07/10 00:06:00;;;;;;;9.85;3.80;;;23.10;70.10;;;;;;5017164;28;20502;-75
2023/07/10 00:08:26;;;;;;;7.20;3.42;;;23.00;70.00;;;;;;5018257;28;20030;-75
2023/07/10 00:10:52;;;;;;;8.88;3.97;;;23.00;69.80;;;;;;5018017;28;20124;-75
2023/07/10 00:13:21;;;;;;;9.32;3.92;;;22.90;69.30;;;;;;5019642;28;20026;-75
2023/07/10 00:15:48;;;;;;;8.27;3.67;;;23.00;68.20;;;;;;5016643;28;20030;-75
2023/07/10 00:18:17;;;;;;;9.35;3.85;;;23.00;68.50;;;;;;5015188;28;20044;-76
2023/07/10 00:20:45;;;;;;;7.43;3.50;;;23.00;68.40;;;;;;5016289;28;20057;-75
2023/07/10 00:23:11;;;;;;;11.45;3.97;;;23.10;68.40;;;;;;5015614;28;20029;-75
2023/07/10 00:25:37;;;;;;;11.00;3.80;;;22.90;71.40;;;;;;4995089;28;20022;-75
2023/07/10 00:28:12;;;;;;;9.98;4.30;;;22.70;71.90;;;;;;4998662;28;20032;-75
2023/07/10 00:30:38;;;;;;;10.30;4.40;;;22.50;71.40;;;;;;5014513;28;20319;-75
2023/07/10 00:33:08;;;;;;;9.02;3.63;;;22.20;74.80;;;;;;5014173;28;20034;-75
2023/07/10 00:35:34;;;;;;;9.77;3.83;;;21.70;74.90;;;;;;5017745;28;20460;-75
2023/07/10 00:38:10;;;;;;;7.95;3.72;;;21.50;74.40;;;;;;5015096;28;20025;-75
2023/07/10 00:40:36;;;;;;;9.13;4.10;;;21.30;75.30;;;;;;4997753;28;20046;-75
2023/07/10 00:43:06;;;;;;;7.93;4.05;;;21.20;75.50;;;;;;4998774;28;20419;-74
2023/07/10 00:45:31;;;;;;;6.75;3.55;;;21.10;76.10;;;;;;5015575;28;20090;-75
2023/07/10 00:48:07;;;;;;;6.53;3.67;;;21.00;77.60;;;;;;5016539;28;20091;-75
2023/07/10 00:50:39;;;;;;;8.77;3.50;;;20.80;78.40;;;;;;5014580;28;20033;-75
2023/07/10 00:53:10;;;;;;;10.18;4.28;;;20.70;78.90;;;;;;4998076;28;20049;-75
2023/07/10 00:55:38;;;;;;;7.57;3.70;;;20.60;78.50;;;;;;5006145;28;20057;-75
2023/07/10 00:58:06;;;;;;;8.75;3.60;;;20.70;78.50;;;;;;5012432;28;20030;-75
2023/07/10 01:00:34;;;;;;;7.40;4.00;;;20.80;77.20;;;;;;5016424;28;20030;-75
2023/07/10 01:03:02;;;;;;;9.48;3.83;;;20.90;76.70;;;;;;5017093;28;20017;-76
2023/07/10 01:05:31;;;;;;;11.35;4.00;;;21.00;76.40;;;;;;4997931;28;20023;-75
2023/07/10 01:07:58;;;;;;;8.95;3.67;;;21.10;75.50;;;;;;5010220;28;20025;-75
2023/07/10 01:10:24;;;;;;;10.55;3.90;;;21.30;74.70;;;;;;5017081;28;20046;-77
2023/07/10 01:12:51;;;;;;;12.30;3.90;;;21.40;73.90;;;;;;4999597;28;20045;-75
2023/07/10 01:15:17;;;;;;;7.13;3.35;;;21.50;72.70;;;;;;5016271;28;20033;-75
2023/07/10 01:17:43;;;;;;;8.00;3.70;;;21.60;72.60;;;;;;5016290;28;20131;-76
2023/07/10 01:20:33;;;;;;;7.93;3.90;;;21.70;71.80;;;;;;5016620;28;20061;-75
2023/07/10 01:23:00;;;;;;;14.60;3.58;;;21.80;70.80;;;;;;5013771;28;20025;-75
2023/07/10 01:25:26;;;;;;;7.70;3.65;;;21.80;71.50;;;;;;5014925;28;20435;-74
2023/07/10 01:27:52;;;;;;;9.68;3.72;;;21.70;71.00;;;;;;5013698;28;20030;-74
2023/07/10 01:30:38;;;;;;;9.02;3.67;;;21.70;71.20;;;;;;5016799;28;20048;-73
2023/07/10 01:33:05;;;;;;;8.23;3.95;;;21.80;73.50;;;;;;5016549;28;20052;-75
2023/07/10 01:35:33;;;;;;;7.15;3.40;;;21.70;74.60;;;;;;5016670;28;20466;-75
2023/07/10 01:37:58;;;;;;;8.68;3.67;;;21.50;75.20;;;;;;4997325;28;20033;-76
2023/07/10 01:40:36;;;;;;;8.95;3.70;;;21.40;74.80;;;;;;5012177;28;20449;-75
2023/07/10 01:43:02;;;;;;;11.25;4.15;;;21.30;74.40;;;;;;4998843;28;20095;-75
2023/07/10 01:45:28;;;;;;;9.35;3.72;;;21.30;74.30;;;;;;5014231;28;20026;-76
2023/07/10 01:47:55;;;;;;;8.90;3.97;;;21.30;73.10;;;;;;5014389;28;20026;-75
2023/07/10 01:50:21;;;;;;;9.63;4.20;;;21.30;73.50;;;;;;5015113;28;20300;-75
2023/07/10 01:52:47;;;;;;;8.88;3.50;;;21.30;75.10;;;;;;5014379;28;20028;-75
2023/07/10 01:55:15;;;;;;;7.28;3.65;;;21.30;76.20;;;;;;5011594;28;20034;-76
2023/07/10 01:57:41;;;;;;;8.20;3.60;;;21.10;77.10;;;;;;5013461;28;20079;-75
2023/07/10 02:00:09;;;;;;;11.05;4.22;;;21.00;76.50;;;;;;5013724;28;20034;-75
2023/07/10 02:02:34;;;;;;;8.02;3.60;;;21.10;75.40;;;;;;5012256;28;20018;-75
2023/07/10 02:05:03;;;;;;;8.10;3.75;;;21.10;75.50;;;;;;5012225;28;20414;-75
2023/07/10 02:07:29;;;;;;;7.75;3.78;;;21.20;75.10;;;;;;5011939;28;21745;-76
2023/07/10 02:09:54;;;;;;;9.15;3.40;;;21.20;75.40;;;;;;5012163;28;20026;-76
2023/07/10 02:12:20;;;;;;;9.82;3.80;;;21.20;76.30;;;;;;5013375;28;20034;-76
2023/07/10 02:14:45;;;;;;;6.72;3.47;;;21.10;77.50;;;;;;5014212;28;20079;-76
2023/07/10 02:17:11;;;;;;;9.82;3.65;;;21.10;77.10;;;;;;5013121;28;20034;-76
2023/07/10 02:19:36;;;;;;;9.07;3.63;;;21.00;77.40;;;;;;5015220;28;20033;-75
2023/07/10 02:22:02;;;;;;;10.10;4.35;;;21.00;77.40;;;;;;5012893;28;20029;-75
2023/07/10 02:24:28;;;;;;;9.10;4.25;;;21.00;77.70;;;;;;5013380;28;20080;-75
2023/07/10 02:26:53;;;;;;;9.73;3.63;;;21.00;77.70;;;;;;5012429;28;20044;-75
2023/07/10 02:29:19;;;;;;;9.70;3.70;;;21.00;77.30;;;;;;5015240;28;20037;-76
2023/07/10 02:31:44;;;;;;;7.57;3.50;;;21.00;77.20;;;;;;5013441;28;20080;-75
2023/07/10 02:34:10;;;;;;;8.20;4.47;;;21.10;77.10;;;;;;5015669;28;20061;-75
2023/07/10 02:36:35;;;;;;;8.10;3.28;;;21.20;76.50;;;;;;5012289;28;20375;-76
2023/07/10 02:39:02;;;;;;;6.65;3.80;;;21.40;77.00;;;;;;5016636;28;20026;-76
2023/07/10 02:41:27;;;;;;;7.25;3.22;;;21.40;77.30;;;;;;5015730;28;20050;-76
2023/07/10 02:43:53;;;;;;;6.75;3.38;;;21.30;78.10;;;;;;5016409;28;20026;-76
2023/07/10 02:46:18;;;;;;;9.10;3.58;;;21.20;78.40;;;;;;5015521;28;20017;-76
2023/07/10 02:48:44;;;;;;;8.07;3.58;;;21.20;78.90;;;;;;5022527;28;20132;-76
2023/07/10 02:51:09;;;;;;;9.38;3.97;;;21.20;78.20;;;;;;5016527;28;20058;-76
2023/07/10 02:53:38;;;;;;;12.23;4.40;;;21.30;78.30;;;;;;5019236;28;20030;-76
2023/07/10 02:56:03;;;;;;;10.50;3.70;;;21.30;76.70;;;;;;5017866;28;20037;-76
2023/07/10 02:58:29;;;;;;;8.25;3.70;;;21.40;75.30;;;;;;5019235;28;20122;-76
2023/07/10 03:00:59;;;;;;;8.32;3.60;;;21.50;77.40;;;;;;5018568;28;20033;-76
2023/07/10 03:03:26;;;;;;;6.13;3.30;;;21.50;78.60;;;;;;5002314;28;20032;-76
2023/07/10 03:05:56;;;;;;;7.00;3.45;;;21.30;78.70;;;;;;5018452;28;20030;-76
2023/07/10 03:08:22;;;;;;;8.38;4.15;;;21.30;77.90;;;;;;5001646;28;20411;-76
2023/07/10 03:10:47;;;;;;;9.13;3.50;;;21.40;75.80;;;;;;5017648;28;20112;-76
2023/07/10 03:13:13;;;;;;;8.05;3.55;;;21.50;78.90;;;;;;5019363;28;20320;-76
2023/07/10 03:15:38;;;;;;;9.85;4.65;;;21.40;79.60;;;;;;5019085;28;20034;-76
2023/07/10 03:18:04;;;;;;;9.95;3.80;;;21.30;76.70;;;;;;5018905;28;20030;-76
2023/07/10 03:20:29;;;;;;;10.82;3.95;;;21.60;78.30;;;;;;5000199;28;20018;-76
2023/07/10 03:22:55;;;;;;;10.93;4.30;;;21.60;77.40;;;;;;5000314;28;20121;-76
2023/07/10 03:25:21;;;;;;;8.32;4.03;;;21.50;77.90;;;;;;5018104;28;20033;-76
2023/07/10 03:27:50;;;;;;;7.22;3.85;;;21.50;78.70;;;;;;5017824;28;20034;-76
2023/07/10 03:30:17;;;;;;;10.63;4.28;;;21.40;79.10;;;;;;5017858;28;20113;-75
2023/07/10 03:32:42;;;;;;;10.50;3.67;;;21.30;78.80;;;;;;5012477;28;20026;-75
2023/07/10 03:35:08;;;;;;;10.95;4.45;;;21.40;80.20;;;;;;4994611;28;20103;-76
2023/07/10 03:37:33;;;;;;;9.38;3.63;;;21.30;79.40;;;;;;5015225;28;20099;-76
2023/07/10 03:39:59;;;;;;;7.93;4.28;;;21.30;79.60;;;;;;5014637;28;20026;-76
2023/07/10 03:42:25;;;;;;;9.15;4.25;;;21.30;80.10;;;;;;5019801;28;20161;-76
2023/07/10 03:44:50;;;;;;;8.65;4.28;;;21.30;79.50;;;;;;5023994;28;20073;-76
2023/07/10 03:47:16;;;;;;;8.15;4.00;;;21.30;81.00;;;;;;5013738;28;20041;-76
2023/07/10 03:49:41;;;;;;;7.20;3.70;;;21.30;81.00;;;;;;5014313;28;20030;-76
2023/07/10 03:52:07;;;;;;;8.15;4.10;;;21.30;81.70;;;;;;5017241;28;20032;-76
2023/07/10 03:54:33;;;;;;;9.07;4.57;;;21.20;81.80;;;;;;5012363;28;20038;-76
2023/07/10 03:56:58;;;;;;;8.63;4.82;;;21.30;80.50;;;;;;5020562;28;20018;-76
2023/07/10 03:59:24;;;;;;;10.40;4.60;;;21.40;81.50;;;;;;5020712;28;20030;-77
2023/07/10 04:01:49;;;;;;;13.45;4.47;;;21.40;80.50;;;;;;5023275;28;20325;-76
2023/07/10 04:04:15;;;;;;;11.20;4.55;;;21.30;85.00;;;;;;5022749;28;20372;-76
2023/07/10 04:06:41;;;;;;;10.90;4.32;;;21.10;86.90;;;;;;5020648;28;20410;-76
2023/07/10 04:09:06;;;;;;;9.90;4.68;;;20.90;87.70;;;;;;5021474;28;20089;-76
2023/07/10 04:11:32;;;;;;;9.95;4.32;;;20.70;87.30;;;;;;5015155;28;20109;-76
2023/07/10 04:13:58;;;;;;;14.63;4.70;;;20.50;88.10;;;;;;5016873;28;20041;-76
2023/07/10 04:16:29;;;;;;;8.95;4.45;;;20.40;90.30;;;;;;4997220;28;20022;-76
2023/07/10 04:18:55;;;;;;;10.10;4.75;;;20.40;91.70;;;;;;5015878;28;20030;-75
2023/07/10 04:21:31;;;;;;;10.00;4.90;;;20.30;92.70;;;;;;5016652;28;20660;-75
2023/07/10 04:23:58;;;;;;;14.52;5.15;;;20.20;92.50;;;;;;5017681;28;20029;-75
2023/07/10 04:26:27;;;;;;;9.93;4.97;;;20.00;93.30;;;;;;5017200;28;20022;-75
2023/07/10 04:28:54;;;;;;;12.57;5.47;;;19.90;93.60;;;;;;5011402;28;20091;-75
2023/07/10 04:31:20;;;;;;;11.65;6.03;;;19.80;93.80;;;;;;5015369;28;20356;-77
2023/07/10 04:33:46;;;;;;;10.38;5.95;;;19.70;93.90;;;;;;5017402;28;20041;-78
2023/07/10 04:36:12;;;;;;;10.32;6.55;;;19.80;94.70;;;;;;5002421;28;20366;-77
2023/07/10 04:38:38;;;;;;;10.30;5.47;;;19.80;93.70;;;;;;5016605;28;20481;-79
2023/07/10 04:41:10;;;;;;;12.60;5.53;;;19.70;94.50;;;;;;5014399;28;20332;-78
2023/07/10 04:43:39;;;;;;;10.68;6.20;;;19.40;94.30;;;;;;5014673;28;20018;-78
2023/07/10 04:46:08;;;;;;;11.98;6.57;;;19.20;94.80;;;;;;5012846;28;20025;-77
2023/07/10 04:48:34;;;;;;;12.70;6.18;;;19.20;94.80;;;;;;5015897;28;20109;-78
2023/07/10 04:51:03;;;;;;;10.00;6.28;;;19.30;94.80;;;;;;5013301;28;20108;-79
2023/07/10 04:53:30;;;;;;;12.35;6.93;;;19.40;94.80;;;;;;4999269;28;20076;-79
2023/07/10 04:55:56;;;;;;;10.45;6.18;;;19.50;94.10;;;;;;5011257;28;20045;-78
2023/07/10 04:58:23;;;;;;;10.57;6.20;;;19.60;94.00;;;;;;4998593;28;20064;-78
2023/07/10 05:00:57;;;;;;;12.55;5.95;;;19.60;94.10;;;;;;5011019;28;20034;-78
2023/07/10 05:03:23;;;;;;;14.02;6.38;;;19.60;94.60;;;;;;4991944;28;20039;-79
2023/07/10 05:05:57;;;;;;;10.50;6.20;;;19.70;95.10;;;;;;5013846;28;20419;-79
2023/07/10 05:08:24;;;;;;;9.77;6.63;;;19.80;94.50;;;;;;5016885;28;20030;-78
2023/07/10 05:10:51;;;;;;;11.40;6.63;;;19.80;94.70;;;;;;5014632;28;20109;-78
2023/07/10 05:13:24;;;;;;;9.77;5.93;;;19.80;94.50;;;;;;5016467;28;20030;-78
2023/07/10 05:15:49;;;;;;;12.48;5.90;;;19.90;95.10;;;;;;5016776;28;20022;-78
2023/07/10 05:18:15;;;;;;;13.38;5.93;;;20.00;94.90;;;;;;5015505;28;20037;-77
2023/07/10 05:20:44;;;;;;;10.75;5.82;;;20.00;95.10;;;;;;5015048;28;20030;-77
2023/07/10 05:23:09;;;;;;;12.82;6.32;;;20.10;95.00;;;;;;5015803;28;20038;-78
2023/07/10 05:25:35;;;;;;;11.75;6.13;;;20.20;94.80;;;;;;5012687;28;20296;-77
2023/07/10 05:28:01;;;;;;;12.10;6.03;;;20.20;95.20;;;;;;4979957;28;20109;-77
2023/07/10 05:30:27;;;;;;;16.98;6.30;;;20.20;95.20;;;;;;5009670;28;20109;-78
2023/07/10 05:32:53;;;;;;;10.45;6.18;;;20.60;94.40;;;;;;5010356;28;20032;-82
2023/07/10 05:35:19;;;;;;;13.63;7.43;;;20.30;94.50;;;;;;5011526;28;20101;-84
2023/07/10 05:37:44;;;;;;;12.75;7.45;;;19.90;92.00;;;;;;5015165;28;20037;-86
2023/07/10 05:40:10;;;;;;;17.48;7.93;;;19.60;88.60;;;;;;4999332;28;20076;-86
2023/07/10 05:42:43;;;;;;;13.60;7.20;;;19.40;88.10;;;;;;4998059;28;20048;-90
2023/07/10 05:45:09;;;;;;;11.73;7.10;;;19.30;86.50;;;;;;4993808;28;20100;-90
2023/07/10 05:47:35;;;;;;;13.85;7.55;;;19.20;84.90;;;;;;4985906;28;20034;-89
2023/07/10 05:50:00;;;;;;;14.80;7.47;;;19.10;84.20;;;;;;4995181;28;20045;-90
2023/07/10 05:52:26;;;;;;;15.45;7.90;;;19.10;81.70;;;;;;5015153;28;20022;-89
2023/07/10 05:54:52;;;;;;;13.15;8.23;;;19.20;79.40;;;;;;4998147;28;20029;-88
2023/07/10 05:57:18;;;;;;;12.02;8.75;;;19.30;78.60;;;;;;4998825;28;20501;-89
2023/07/10 05:59:44;;;;;;;12.35;7.80;;;19.30;75.80;;;;;;5014465;28;20026;-88
2023/07/10 06:02:12;;;;;;;12.18;7.65;;;19.50;74.10;;;;;;5009785;28;20486;-88
2023/07/10 06:04:38;;;;;;;14.80;7.78;;;19.60;76.30;;;;;;5006419;28;20065;-87
2023/07/10 06:07:05;;;;;;;12.50;7.40;;;19.60;78.20;;;;;;5009012;28;20030;-87
2023/07/10 06:09:31;;;;;;;16.23;8.65;;;19.70;79.30;;;;;;5010562;28;20061;-87
2023/07/10 06:11:57;;;;;;;12.35;7.45;;;19.70;79.30;;;;;;5009085;28;20076;-87
2023/07/10 06:14:22;;;;;;;15.95;8.38;;;19.80;78.20;;;;;;4998670;28;20446;-87
2023/07/10 06:16:48;;;;;;;13.38;7.95;;;19.90;78.60;;;;;;5010823;28;20018;-86
2023/07/10 06:19:14;;;;;;;14.10;7.43;;;20.00;78.70;;;;;;5014754;28;20061;-86
2023/07/10 06:21:42;;;;;;;13.75;7.97;;;20.10;81.20;;;;;;5005226;28;20054;-85
2023/07/10 06:24:08;;;;;;;11.73;7.65;;;20.20;82.00;;;;;;5009478;28;20449;-85
2023/07/10 06:26:33;;;;;;;11.02;7.13;;;20.30;83.20;;;;;;5008828;28;20022;-85
2023/07/10 06:28:59;;;;;;;12.80;7.45;;;20.20;85.60;;;;;;4995270;28;20524;-85
2023/07/10 06:31:25;;;;;;;14.55;7.30;;;20.20;85.20;;;;;;4997903;28;20049;-85
2023/07/10 06:33:51;;;;;;;11.38;7.38;;;20.10;84.20;;;;;;5012105;28;20354;-83
2023/07/10 06:36:16;;;;;;;12.50;6.75;;;20.10;87.40;;;;;;5012387;28;20113;-83
2023/07/10 06:38:42;;;;;;;13.00;6.57;;;20.30;90.20;;;;;;5015000;28;20121;-83
2023/07/10 06:41:10;;;;;;;11.43;6.60;;;20.50;90.50;;;;;;5009616;28;20038;-83
2023/07/10 06:43:35;;;;;;;9.60;6.35;;;20.80;90.30;;;;;;5015265;28;20026;-83
2023/07/10 06:46:01;;;;;;;12.18;7.40;;;21.10;89.80;;;;;;5013487;28;20029;-83
2023/07/10 06:48:27;;;;;;;10.88;6.93;;;21.50;90.90;;;;;;5012953;28;20026;-83
2023/07/10 06:50:54;;;;;;;9.73;6.57;;;21.70;91.50;;;;;;5009124;28;20407;-83
2023/07/10 06:53:20;;;;;;;11.02;6.00;;;21.90;93.10;;;;;;4997930;28;20053;-83
2023/07/10 06:55:52;;;;;;;11.48;5.88;;;22.10;93.10;;;;;;5013449;28;20026;-84
2023/07/10 06:58:18;;;;;;;10.20;6.35;;;22.30;92.00;;;;;;5011388;28;20455;-83
2023/07/10 07:00:43;;;;;;;11.38;5.63;;;22.70;93.70;;;;;;5015893;28;20038;-81
2023/07/10 07:03:09;;;;;;;11.38;6.57;;;23.00;95.20;;;;;;5013080;28;20029;-83
2023/07/10 07:05:34;;;;;;;10.00;5.90;;;23.20;95.50;;;;;;5008093;28;20407;-83
2023/07/10 07:08:00;;;;;;;11.75;6.20;;;23.30;95.80;;;;;;4998802;28;20036;-82
2023/07/10 07:10:25;;;;;;;10.18;5.65;;;23.30;95.90;;;;;;5009082;28;20022;-82
2023/07/10 07:12:51;;;;;;;10.25;6.18;;;23.40;95.20;;;;;;5014036;28;20049;-83
2023/07/10 07:15:18;;;;;;;9.27;5.80;;;23.70;95.80;;;;;;5015633;28;20036;-80
2023/07/10 07:17:43;;;;;;;10.57;6.18;;;23.90;95.70;;;;;;5011197;28;20030;-80
2023/07/10 07:20:09;;;;;;;10.68;5.65;;;24.00;95.10;;;;;;5014184;28;20044;-80
2023/07/10 07:22:35;;;;;;;11.45;5.90;;;23.90;95.30;;;;;;5014349;28;20096;-80
2023/07/10 07:25:01;;;;;;;13.90;5.68;;;24.00;94.60;;;;;;5015922;28;20062;-81
2023/07/10 07:27:31;;;;;;;9.75;5.10;;;24.00;92.60;;;;;;4992242;28;20045;-81
2023/07/10 07:29:56;;;;;;;9.93;5.75;;;24.40;91.70;;;;;;5017550;28;20498;-81
2023/07/10 07:32:22;;;;;;;10.85;5.18;;;25.30;92.60;;;;;;5017158;28;20101;-81
2023/07/10 07:34:48;;;;;;;10.38;4.78;;;25.70;88.00;;;;;;5015745;28;20072;-81
2023/07/10 07:37:14;;;;;;;11.40;5.20;;;25.70;87.60;;;;;;5017733;28;20418;-82
2023/07/10 07:39:39;;;;;;;8.63;4.22;;;26.00;86.10;;;;;;5001445;28;20432;-82
2023/07/10 07:42:05;;;;;;;8.18;4.53;;;26.50;85.50;;;;;;5014210;28;20054;-81
2023/07/10 07:44:31;;;;;;;8.70;4.90;;;27.20;83.10;;;;;;4994222;28;20030;-81
2023/07/10 07:46:57;;;;;;;10.80;4.93;;;28.00;79.40;;;;;;5010801;28;20049;-81
2023/07/10 07:49:26;;;;;;;12.75;5.25;;;28.60;78.50;;;;;;5000122;28;20041;-80
2023/07/10 07:51:52;;;;;;;12.63;5.40;;;29.10;76.30;;;;;;4997825;28;20018;-80
2023/07/10 07:54:18;;;;;;;8.90;4.30;;;29.20;76.20;;;;;;4981978;28;20026;-80
2023/07/10 07:56:43;;;;;;;9.65;5.18;;;29.50;75.60;;;;;;5007513;28;20030;-79
2023/07/10 07:59:09;;;;;;;9.40;4.75;;;30.00;74.30;;;;;;5017902;28;20033;-81
2023/07/10 08:01:35;;;;;;;9.55;5.00;;;29.90;74.40;;;;;;5001343;28;20105;-80
2023/07/10 08:04:01;;;;;;;13.60;4.88;;;30.00;74.10;;;;;;4984811;28;20412;-79
2023/07/10 08:06:28;;;;;;;8.48;4.72;;;29.60;75.10;;;;;;4990447;28;20056;-80
2023/07/10 08:08:54;;;;;;;10.40;4.95;;;29.60;76.40;;;;;;5018261;28;20022;-80
2023/07/10 08:11:20;;;;;;;10.13;5.20;;;29.40;75.20;;;;;;5012712;28;20117;-80
2023/07/10 08:13:46;;;;;;;8.38;4.53;;;29.30;75.80;;;;;;5018419;28;20073;-80
2023/07/10 08:16:11;;;;;;;9.07;4.90;;;29.10;75.70;;;;;;5016032;28;20419;-80
2023/07/10 08:18:37;;;;;;;10.18;5.00;;;28.80;76.60;;;;;;4998768;28;20033;-80
2023/07/10 08:21:05;;;;;;;13.80;4.78;;;28.80;76.40;;;;;;5014317;28;20064;-80
2023/07/10 08:23:31;;;;;;;8.63;5.05;;;28.60;76.30;;;;;;5018106;28;20053;-80
2023/07/10 08:25:56;;;;;;;11.07;5.35;;;28.20;77.00;;;;;;5013028;28;20054;-79
2023/07/10 08:28:22;;;;;;;8.18;4.95;;;28.30;77.20;;;;;;4998323;28;20617;-80
2023/07/10 08:30:48;;;;;;;11.43;5.30;;;28.40;77.50;;;;;;4999479;28;20462;-80
2023/07/10 08:33:13;;;;;;;8.25;4.70;;;28.30;78.10;;;;;;4990044;28;20116;-80
2023/07/10 08:35:39;;;;;;;8.25;4.72;;;28.80;76.40;;;;;;4997366;28;20048;-80
2023/07/10 08:38:05;;;;;;;9.70;4.95;;;29.20;76.00;;;;;;5015996;28;20037;-80
2023/07/10 08:40:34;;;;;;;8.57;4.82;;;29.60;76.10;;;;;;5017415;28;20315;-80
2023/07/10 08:43:31;;;;;;;9.32;4.55;;;30.10;73.80;;;;;;5017816;28;20037;-80
2023/07/10 08:46:10;;;;;;;11.18;4.07;;;30.30;73.40;;;;;;5014837;28;20022;-80
2023/07/10 08:48:38;;;;;;;11.43;4.93;;;30.20;73.00;;;;;;4997168;28;20122;-80
2023/07/10 08:51:19;;;;;;;8.90;4.47;;;30.20;72.70;;;;;;4999932;28;20509;-80
2023/07/10 08:54:00;;;;;;;11.05;5.05;;;30.40;72.30;;;;;;4996298;28;20377;-79
2023/07/10 08:56:37;;;;;;;7.75;4.53;;;31.00;71.10;;;;;;4993098;28;20285;-79
2023/07/10 08:59:12;;;;;;;8.38;4.68;;;31.30;71.30;;;;;;5003160;28;20077;-80
2023/07/10 09:01:44;;;;;;;9.38;4.40;;;31.80;70.20;;;;;;5017388;28;20429;-80
2023/07/10 09:04:14;;;;;;;11.77;4.93;;;31.70;70.40;;;;;;5012273;28;20061;-80
2023/07/10 09:06:51;;;;;;;9.70;4.22;;;31.10;70.70;;;;;;5013002;28;20030;-79
2023/07/10 09:09:35;;;;;;;7.75;4.32;;;30.90;70.30;;;;;;5015377;28;20038;-79
2023/07/10 09:12:08;;;;;;;13.75;4.75;;;31.40;70.30;;;;;;5014127;28;20038;-79
2023/07/10 09:14:55;;;;;;;8.48;4.72;;;32.10;68.60;;;;;;5008611;28;20014;-79
2023/07/10 09:17:56;;;;;;;10.73;4.93;;;31.90;69.10;;;;;;5017112;28;20026;-79
2023/07/10 09:20:24;;;;;;;9.18;4.25;;;31.30;70.00;;;;;;4935710;29;20082;-79
2023/07/10 09:22:57;;;;;;;8.13;4.50;;;31.40;70.70;;;;;;4999807;28;20389;-79
2023/07/10 09:25:24;;;;;;;7.40;4.28;;;32.40;69.10;;;;;;5013388;28;20421;-79
2023/07/10 09:27:50;;;;;;;7.72;4.82;;;31.80;68.10;;;;;;4986860;28;20038;-79
2023/07/10 09:30:37;;;;;;;9.45;4.97;;;31.00;70.30;;;;;;5013946;28;20137;-79
2023/07/10 09:33:05;;;;;;;10.23;4.90;;;30.10;71.80;;;;;;5008979;28;20109;-79
2023/07/10 09:35:34;;;;;;;10.18;5.45;;;29.40;73.30;;;;;;4994168;28;20026;-79
2023/07/10 09:38:01;;;;;;;8.75;4.97;;;29.40;74.30;;;;;;5011871;28;20056;-79
2023/07/10 09:40:32;;;;;;;10.63;5.47;;;29.80;73.30;;;;;;5014454;28;20034;-79
2023/07/10 09:43:08;;;;;;;9.77;4.85;;;29.70;73.40;;;;;;5012474;28;20037;-79
2023/07/10 09:45:36;;;;;;;8.93;5.50;;;29.20;74.30;;;;;;5002272;28;20116;-79
2023/07/10 09:48:10;;;;;;;10.70;4.88;;;28.50;75.90;;;;;;5016304;28;20384;-79
2023/07/10 09:50:37;;;;;;;9.65;5.07;;;28.50;76.50;;;;;;5012152;28;20026;-79
2023/07/10 09:53:02;;;;;;;9.15;4.72;;;28.90;76.20;;;;;;4981263;28;20030;-79
2023/07/10 09:55:28;;;;;;;9.52;5.03;;;30.00;74.10;;;;;;5013046;28;20045;-79
2023/07/10 09:58:02;;;;;;;11.65;5.20;;;30.90;72.30;;;;;;5010608;28;20033;-79
2023/07/10 10:00:29;;;;;;;12.82;5.72;;;30.80;71.90;;;;;;5015586;28;20443;-78
2023/07/10 10:03:01;;;;;;;12.70;5.15;;;30.00;72.60;;;;;;5016204;28;20030;-78
2023/07/10 10:05:27;;;;;;;8.05;5.03;;;29.60;74.60;;;;;;5014518;28;20022;-79
2023/07/10 10:08:00;;;;;;;11.32;4.90;;;30.30;73.30;;;;;;4995384;28;20036;-78
2023/07/10 10:10:30;;;;;;;11.15;5.13;;;31.20;71.20;;;;;;5012448;28;20026;-78
2023/07/10 10:13:24;;;;;;;7.57;4.72;;;31.60;70.00;;;;;;4990689;28;20026;-78
2023/07/10 10:16:17;;;;;;;8.35;4.40;;;31.50;69.50;;;;;;5005144;28;20022;-77
2023/07/10 10:18:49;;;;;;;8.27;4.50;;;31.70;69.40;;;;;;5014334;28;20033;-78
2023/07/10 10:21:17;;;;;;;8.85;4.70;;;31.70;68.30;;;;;;5010272;28;20120;-79
2023/07/10 10:23:45;;;;;;;10.35;5.05;;;32.10;68.20;;;;;;4995770;28;20040;-79
2023/07/10 10:26:22;;;;;;;12.00;5.40;;;31.60;68.70;;;;;;5015535;28;20056;-78
2023/07/10 10:29:10;;;;;;;7.70;5.10;;;30.60;70.90;;;;;;4998636;28;20426;-79
2023/07/10 10:31:40;;;;;;;8.82;5.05;;;30.30;71.80;;;;;;5011916;28;20057;-79
2023/07/10 10:34:28;;;;;;;11.68;5.57;;;30.60;71.70;;;;;;4996710;28;20117;-79
2023/07/10 10:37:15;;;;;;;8.65;5.35;;;31.10;71.20;;;;;;5012554;28;20030;-79
2023/07/10 10:40:01;;;;;;;10.00;5.70;;;30.60;71.90;;;;;;4996478;28;20034;-79
2023/07/10 10:42:35;;;;;;;9.18;4.97;;;30.90;71.60;;;;;;4999516;28;20335;-79
2023/07/10 10:45:25;;;;;;;8.57;5.40;;;31.20;70.40;;;;;;4996317;28;20382;-79
2023/07/10 10:48:04;;;;;;;10.27;5.20;;;31.10;70.50;;;;;;4996377;28;20019;-78
2023/07/10 10:50:51;;;;;;;8.73;5.10;;;30.10;72.20;;;;;;5008841;28;20022;-77
2023/07/10 10:53:32;;;;;;;8.68;5.05;;;29.60;73.90;;;;;;5013420;28;20141;-78
2023/07/10 10:56:28;;;;;;;8.80;5.35;;;30.20;72.70;;;;;;5014865;28;20049;-77
2023/07/10 10:59:34;;;;;;;8.75;4.60;;;30.40;70.70;;;;;;5008064;28;20327;-78
2023/07/10 11:02:22;;;;;;;8.43;4.40;;;30.50;71.40;;;;;;5006981;28;20032;-79
2023/07/10 11:04:55;;;;;;;10.38;4.88;;;30.80;70.80;;;;;;5019618;28;20346;-78
2023/07/10 11:07:23;;;;;;;8.75;4.80;;;30.80;70.00;;;;;;5018555;28;20105;-78
2023/07/10 11:09:59;;;;;;;9.52;4.63;;;30.90;69.70;;;;;;5016345;28;20036;-78
2023/07/10 11:12:30;;;;;;;10.38;4.70;;;31.30;69.10;;;;;;5011647;28;20119;-78
2023/07/10 11:15:01;;;;;;;9.70;4.85;;;31.80;68.00;;;;;;5016512;28;20029;-78
2023/07/10 11:17:26;;;;;;;8.70;4.50;;;31.90;66.90;;;;;;5019378;28;20072;-78
2023/07/10 11:19:53;;;;;;;9.38;5.03;;;31.80;67.70;;;;;;5019486;28;20029;-78
2023/07/10 11:22:31;;;;;;;11.68;5.03;;;32.00;66.90;;;;;;5013059;28;20054;-78
2023/07/10 11:24:58;;;;;;;11.40;5.35;;;31.50;67.40;;;;;;4982276;28;20026;-78
2023/07/10 11:27:30;;;;;;;11.60;5.05;;;31.00;67.60;;;;;;4997281;28;20026;-78
2023/07/10 11:30:13;;;;;;;9.10;4.78;;;31.20;66.60;;;;;;5018575;28;20036;-78
2023/07/10 11:33:18;;;;;;;7.20;4.60;;;31.40;66.50;;;;;;5017751;28;20022;-78
2023/07/10 11:36:21;;;;;;;8.70;4.43;;;31.50;64.50;;;;;;5016043;28;20408;-78
2023/07/10 11:39:04;;;;;;;10.05;5.07;;;32.30;65.40;;;;;;4999378;28;20030;-78
2023/07/10 11:41:32;;;;;;;8.38;4.70;;;33.10;62.60;;;;;;5007643;28;20050;-78
2023/07/10 11:44:21;;;;;;;14.00;5.25;;;32.80;64.00;;;;;;5018971;28;20053;-80
2023/07/10 11:47:18;;;;;;;11.77;4.90;;;32.00;63.70;;;;;;5018298;28;20080;-78
2023/07/10 11:50:12;;;;;;;7.32;4.50;;;31.50;66.20;;;;;;5011597;28;20026;-78
2023/07/10 11:52:40;;;;;;;10.63;5.23;;;31.70;67.10;;;;;;5017655;28;20422;-78
2023/07/10 11:55:14;;;;;;;8.48;4.57;;;31.80;67.10;;;;;;5017470;28;20055;-78
2023/07/10 11:57:39;;;;;;;;;;;31.90;62.90;;;;;;5018106;28;20030;-77
2023/07/10 12:00:26;;;;;;;10.18;4.57;;;32.20;66.30;;;;;;5017542;28;19956;-78
2023/07/10 12:02:55;;;;;;;10.18;4.78;;;32.40;65.20;;;;;;5008637;28;20493;-77
2023/07/10 12:05:31;;;;;;;8.73;4.47;;;32.70;65.10;;;;;;4999055;28;20085;-77
2023/07/10 12:08:02;;;;;;;7.57;3.95;;;33.30;63.40;;;;;;4997701;28;20045;-79
2023/07/10 12:10:34;;;;;;;8.52;4.45;;;33.40;63.70;;;;;;5014677;28;20355;-78
2023/07/10 12:13:01;;;;;;;6.90;4.67;;;33.20;63.60;;;;;;5018460;28;20057;-78
2023/07/10 12:15:29;;;;;;;9.88;4.57;;;32.90;62.60;;;;;;5013736;28;20042;-78
2023/07/10 12:17:55;;;;;;;7.50;4.53;;;32.60;63.60;;;;;;5005073;28;20109;-78
2023/07/10 12:20:31;;;;;;;6.50;4.00;;;32.80;60.80;;;;;;5016027;28;20026;-78
2023/07/10 12:23:04;;;;;;;8.18;4.20;;;32.60;61.60;;;;;;4999671;28;20022;-78
2023/07/10 12:25:30;;;;;;;9.73;5.00;;;32.50;59.40;;;;;;5001082;28;20415;-78
2023/07/10 12:28:00;;;;;;;10.43;5.00;;;32.50;59.40;;;;;;5018072;28;20029;-78
2023/07/10 12:30:26;;;;;;;6.63;4.10;;;32.80;59.10;;;;;;5013293;28;20072;-78
2023/07/10 12:32:54;;;;;;;9.07;4.45;;;33.20;58.80;;;;;;5005966;28;20029;-78
2023/07/10 12:35:37;;;;;;;8.27;5.15;;;33.30;58.20;;;;;;5016112;28;20121;-78
2023/07/10 12:38:05;;;;;;;10.35;4.53;;;33.20;58.40;;;;;;5013041;28;20330;-78
2023/07/10 12:40:31;;;;;;;8.18;4.40;;;32.90;58.70;;;;;;5007513;28;20026;-78
2023/07/10 12:43:19;;;;;;;7.15;4.13;;;33.30;58.30;;;;;;5017695;28;20088;-78
2023/07/10 12:45:46;;;;;;;7.72;4.47;;;33.00;57.40;;;;;;5028506;28;20034;-78
2023/07/10 12:48:16;;;;;;;7.10;4.25;;;33.20;56.50;;;;;;5028189;28;20438;-78
2023/07/10 12:50:47;;;;;;;6.55;4.30;;;33.60;55.70;;;;;;5015819;28;20034;-78
2023/07/10 12:53:24;;;;;;;9.25;3.83;;;34.00;56.40;;;;;;5008917;28;20037;-77
2023/07/10 12:55:57;;;;;;;6.57;4.15;;;34.10;55.20;;;;;;5006482;28;20034;-77